sensor_id;sensor_type;location;lat;lon;timestamp;P1;durP1;ratioP1;P2;durP2;ratioP2
65924;SDS011;66010;52.084;5.412;2023-07-29T00:02:37;2.40;;;1.23;;
65924;SDS011;66010;52.084;5.412;2023-07-29T00:05:08;3.00;;;1.40;;
65924;SDS011;66010;52.084;5.412;2023-07-29T00:07:34;1.83;;;1.20;;
65924;SDS011;66010;52.084;5.412;2023-07-29T00:10:01;1.65;;;1.15;;
65924;SDS011;66010;52.084;5.412;2023-07-29T00:12:27;1.80;;;1.20;;
65924;SDS011;66010;52.084;5.412;2023-07-29T00:14:54;1.83;;;1.10;;
65924;SDS011;66010;52.084;5.412;2023-07-29T00:17:21;2.20;;;1.30;;
65924;SDS011;66010;52.084;5.412;2023-07-29T00:19:48;2.47;;;1.30;;
65924;SDS011;66010;52.084;5.412;2023-07-29T00:22:14;1.75;;;1.25;;
65924;SDS011;66010;52.084;5.412;2023-07-29T00:24:40;1.92;;;1.20;;
65924;SDS011;66010;52.084;5.412;2023-07-29T00:27:07;2.15;;;1.30;;
65924;SDS011;66010;52.084;5.412;2023-07-29T00:29:34;1.50;;;1.27;;
65924;SDS011;66010;52.084;5.412;2023-07-29T00:32:00;2.78;;;1.30;;
65924;SDS011;66010;52.084;5.412;2023-07-29T00:34:27;2.60;;;1.27;;
65924;SDS011;66010;52.084;5.412;2023-07-29T00:36:54;1.98;;;1.20;;
65924;SDS011;66010;52.084;5.412;2023-07-29T00:39:20;2.55;;;1.30;;
65924;SDS011;66010;52.084;5.412;2023-07-29T00:41:47;1.60;;;1.10;;
65924;SDS011;66010;52.084;5.412;2023-07-29T00:44:13;2.47;;;1.20;;
65924;SDS011;66010;52.084;5.412;2023-07-29T00:46:40;1.67;;;1.00;;
65924;SDS011;66010;52.084;5.412;2023-07-29T00:49:08;1.45;;;1.10;;
65924;SDS011;66010;52.084;5.412;2023-07-29T00:51:34;1.83;;;1.10;;
65924;SDS011;66010;52.084;5.412;2023-07-29T00:54:01;2.03;;;1.20;;
65924;SDS011;66010;52.084;5.412;2023-07-29T00:56:28;1.88;;;1.23;;
65924;SDS011;66010;52.084;5.412;2023-07-29T00:58:55;1.83;;;1.13;;
65924;SDS011;66010;52.084;5.412;2023-07-29T01:01:26;2.88;;;1.23;;
65924;SDS011;66010;52.084;5.412;2023-07-29T01:03:52;2.00;;;1.10;;
65924;SDS011;66010;52.084;5.412;2023-07-29T01:11:27;2.28;;;1.10;;
65924;SDS011;66010;52.084;5.412;2023-07-29T01:14:19;1.98;;;1.20;;
65924;SDS011;66010;52.084;5.412;2023-07-29T01:16:55;1.73;;;1.15;;
65924;SDS011;66010;52.084;5.412;2023-07-29T01:19:27;1.73;;;1.10;;
65924;SDS011;66010;52.084;5.412;2023-07-29T01:21:59;1.25;;;1.00;;
65924;SDS011;66010;52.084;5.412;2023-07-29T01:24:28;1.58;;;1.10;;
65924;SDS011;66010;52.084;5.412;2023-07-29T01:26:54;1.75;;;1.20;;
65924;SDS011;66010;52.084;5.412;2023-07-29T01:29:21;2.88;;;1.23;;
65924;SDS011;66010;52.084;5.412;2023-07-29T01:31:48;1.45;;;0.90;;
65924;SDS011;66010;52.084;5.412;2023-07-29T01:34:21;2.17;;;1.20;;
65924;SDS011;66010;52.084;5.412;2023-07-29T01:36:49;2.15;;;1.20;;
65924;SDS011;66010;52.084;5.412;2023-07-29T01:39:16;1.85;;;1.10;;
65924;SDS011;66010;52.084;5.412;2023-07-29T01:41:43;1.45;;;0.90;;
65924;SDS011;66010;52.084;5.412;2023-07-29T01:44:10;1.20;;;1.00;;
65924;SDS011;66010;52.084;5.412;2023-07-29T01:46:37;2.28;;;1.10;;
65924;SDS011;66010;52.084;5.412;2023-07-29T01:49:06;1.75;;;1.05;;
65924;SDS011;66010;52.084;5.412;2023-07-29T01:51:32;2.70;;;1.10;;
65924;SDS011;66010;52.084;5.412;2023-07-29T01:53:59;1.13;;;1.00;;
65924;SDS011;66010;52.084;5.412;2023-07-29T01:56:26;1.83;;;1.10;;
65924;SDS011;66010;52.084;5.412;2023-07-29T01:58:54;1.63;;;1.05;;
65924;SDS011;66010;52.084;5.412;2023-07-29T02:01:21;1.90;;;1.10;;
65924;SDS011;66010;52.084;5.412;2023-07-29T02:03:47;1.55;;;1.10;;
65924;SDS011;66010;52.084;5.412;2023-07-29T02:06:21;1.30;;;0.90;;
65924;SDS011;66010;52.084;5.412;2023-07-29T02:11:14;2.83;;;1.20;;
65924;SDS011;66010;52.084;5.412;2023-07-29T02:13:41;1.25;;;0.95;;
65924;SDS011;66010;52.084;5.412;2023-07-29T02:16:08;1.17;;;0.90;;
65924;SDS011;66010;52.084;5.412;2023-07-29T02:18:35;2.08;;;1.10;;
65924;SDS011;66010;52.084;5.412;2023-07-29T02:21:01;1.92;;;1.00;;
65924;SDS011;66010;52.084;5.412;2023-07-29T02:23:28;2.08;;;1.27;;
65924;SDS011;66010;52.084;5.412;2023-07-29T02:25:55;2.10;;;1.23;;
65924;SDS011;66010;52.084;5.412;2023-07-29T02:28:21;2.08;;;1.02;;
65924;SDS011;66010;52.084;5.412;2023-07-29T02:30:48;2.45;;;0.90;;
65924;SDS011;66010;52.084;5.412;2023-07-29T02:33:35;1.55;;;1.00;;
65924;SDS011;66010;52.084;5.412;2023-07-29T02:36:02;1.50;;;1.00;;
65924;SDS011;66010;52.084;5.412;2023-07-29T02:38:28;1.52;;;1.05;;
65924;SDS011;66010;52.084;5.412;2023-07-29T02:40:55;1.50;;;1.00;;
65924;SDS011;66010;52.084;5.412;2023-07-29T02:43:21;2.28;;;1.20;;
65924;SDS011;66010;52.084;5.412;2023-07-29T02:45:48;1.25;;;0.90;;
65924;SDS011;66010;52.084;5.412;2023-07-29T02:48:14;1.80;;;0.95;;
65924;SDS011;66010;52.084;5.412;2023-07-29T02:50:41;2.28;;;1.10;;
65924;SDS011;66010;52.084;5.412;2023-07-29T02:53:07;2.55;;;1.20;;
65924;SDS011;66010;52.084;5.412;2023-07-29T02:55:34;1.63;;;1.05;;
65924;SDS011;66010;52.084;5.412;2023-07-29T02:58:00;2.13;;;1.00;;
65924;SDS011;66010;52.084;5.412;2023-07-29T03:00:27;2.35;;;1.02;;
65924;SDS011;66010;52.084;5.412;2023-07-29T03:02:57;1.73;;;1.05;;
65924;SDS011;66010;52.084;5.412;2023-07-29T03:05:24;2.35;;;1.00;;
65924;SDS011;66010;52.084;5.412;2023-07-29T03:07:50;1.23;;;1.00;;
65924;SDS011;66010;52.084;5.412;2023-07-29T03:10:17;2.55;;;0.98;;
65924;SDS011;66010;52.084;5.412;2023-07-29T03:12:43;2.22;;;1.20;;
65924;SDS011;66010;52.084;5.412;2023-07-29T03:15:10;1.73;;;1.00;;
65924;SDS011;66010;52.084;5.412;2023-07-29T03:17:36;1.92;;;1.02;;
65924;SDS011;66010;52.084;5.412;2023-07-29T03:20:03;2.38;;;1.00;;
65924;SDS011;66010;52.084;5.412;2023-07-29T03:22:29;1.52;;;1.00;;
65924;SDS011;66010;52.084;5.412;2023-07-29T03:24:56;2.30;;;1.08;;
65924;SDS011;66010;52.084;5.412;2023-07-29T03:27:22;1.60;;;1.10;;
65924;SDS011;66010;52.084;5.412;2023-07-29T03:29:49;2.03;;;1.10;;
65924;SDS011;66010;52.084;5.412;2023-07-29T03:32:15;1.80;;;1.20;;
65924;SDS011;66010;52.084;5.412;2023-07-29T03:34:42;1.75;;;1.10;;
65924;SDS011;66010;52.084;5.412;2023-07-29T03:37:09;2.05;;;1.08;;
65924;SDS011;66010;52.084;5.412;2023-07-29T03:39:35;1.33;;;1.10;;
65924;SDS011;66010;52.084;5.412;2023-07-29T03:42:02;1.23;;;1.00;;
65924;SDS011;66010;52.084;5.412;2023-07-29T03:44:29;1.80;;;1.00;;
65924;SDS011;66010;52.084;5.412;2023-07-29T03:46:57;1.65;;;1.05;;
65924;SDS011;66010;52.084;5.412;2023-07-29T03:49:24;2.30;;;1.10;;
65924;SDS011;66010;52.084;5.412;2023-07-29T03:51:50;2.00;;;1.10;;
65924;SDS011;66010;52.084;5.412;2023-07-29T03:54:17;2.67;;;1.02;;
65924;SDS011;66010;52.084;5.412;2023-07-29T03:56:43;1.52;;;1.00;;
65924;SDS011;66010;52.084;5.412;2023-07-29T03:59:10;2.80;;;1.20;;
65924;SDS011;66010;52.084;5.412;2023-07-29T04:01:36;1.67;;;1.00;;
65924;SDS011;66010;52.084;5.412;2023-07-29T04:04:03;2.15;;;1.10;;
65924;SDS011;66010;52.084;5.412;2023-07-29T04:08:57;2.45;;;1.17;;
65924;SDS011;66010;52.084;5.412;2023-07-29T04:11:24;2.45;;;1.05;;
65924;SDS011;66010;52.084;5.412;2023-07-29T04:13:52;2.30;;;1.10;;
65924;SDS011;66010;52.084;5.412;2023-07-29T04:16:18;3.03;;;1.00;;
65924;SDS011;66010;52.084;5.412;2023-07-29T04:18:45;1.27;;;0.88;;
65924;SDS011;66010;52.084;5.412;2023-07-29T04:21:12;1.17;;;1.08;;
65924;SDS011;66010;52.084;5.412;2023-07-29T04:23:38;2.08;;;1.10;;
65924;SDS011;66010;52.084;5.412;2023-07-29T04:26:06;2.63;;;1.00;;
65924;SDS011;66010;52.084;5.412;2023-07-29T04:28:33;2.47;;;1.00;;
65924;SDS011;66010;52.084;5.412;2023-07-29T04:30:59;1.45;;;1.10;;
65924;SDS011;66010;52.084;5.412;2023-07-29T04:33:26;2.33;;;1.10;;
65924;SDS011;66010;52.084;5.412;2023-07-29T04:35:53;1.88;;;0.93;;
65924;SDS011;66010;52.084;5.412;2023-07-29T04:38:19;2.00;;;0.88;;
65924;SDS011;66010;52.084;5.412;2023-07-29T04:40:48;3.40;;;1.35;;
65924;SDS011;66010;52.084;5.412;2023-07-29T04:43:14;1.90;;;1.17;;
65924;SDS011;66010;52.084;5.412;2023-07-29T04:45:44;1.98;;;1.05;;
65924;SDS011;66010;52.084;5.412;2023-07-29T04:48:11;2.15;;;1.05;;
65924;SDS011;66010;52.084;5.412;2023-07-29T04:50:37;1.30;;;0.88;;
65924;SDS011;66010;52.084;5.412;2023-07-29T04:53:04;2.25;;;1.17;;
65924;SDS011;66010;52.084;5.412;2023-07-29T04:55:30;1.73;;;1.10;;
65924;SDS011;66010;52.084;5.412;2023-07-29T04:57:57;2.13;;;1.00;;
65924;SDS011;66010;52.084;5.412;2023-07-29T05:00:24;2.45;;;1.15;;
65924;SDS011;66010;52.084;5.412;2023-07-29T05:02:50;2.35;;;0.95;;
65924;SDS011;66010;52.084;5.412;2023-07-29T05:07:44;2.58;;;1.00;;
65924;SDS011;66010;52.084;5.412;2023-07-29T05:10:11;1.88;;;1.00;;
65924;SDS011;66010;52.084;5.412;2023-07-29T05:12:37;1.20;;;0.90;;
65924;SDS011;66010;52.084;5.412;2023-07-29T05:15:04;2.05;;;1.10;;
65924;SDS011;66010;52.084;5.412;2023-07-29T05:17:31;2.03;;;0.80;;
65924;SDS011;66010;52.084;5.412;2023-07-29T05:19:58;2.28;;;1.05;;
65924;SDS011;66010;52.084;5.412;2023-07-29T05:22:24;2.28;;;1.15;;
65924;SDS011;66010;52.084;5.412;2023-07-29T05:24:51;1.27;;;0.90;;
65924;SDS011;66010;52.084;5.412;2023-07-29T05:27:17;2.30;;;1.00;;
65924;SDS011;66010;52.084;5.412;2023-07-29T05:29:44;2.45;;;1.10;;
65924;SDS011;66010;52.084;5.412;2023-07-29T05:32:10;2.25;;;1.10;;
65924;SDS011;66010;52.084;5.412;2023-07-29T05:34:37;1.75;;;1.10;;
65924;SDS011;66010;52.084;5.412;2023-07-29T05:37:05;1.90;;;1.10;;
65924;SDS011;66010;52.084;5.412;2023-07-29T05:41:59;1.30;;;1.00;;
65924;SDS011;66010;52.084;5.412;2023-07-29T05:44:28;1.60;;;1.20;;
65924;SDS011;66010;52.084;5.412;2023-07-29T05:46:57;3.88;;;1.27;;
65924;SDS011;66010;52.084;5.412;2023-07-29T05:49:24;2.72;;;1.02;;
65924;SDS011;66010;52.084;5.412;2023-07-29T05:51:50;1.73;;;1.10;;
65924;SDS011;66010;52.084;5.412;2023-07-29T05:54:19;2.03;;;1.02;;
65924;SDS011;66010;52.084;5.412;2023-07-29T05:56:45;4.00;;;1.00;;
65924;SDS011;66010;52.084;5.412;2023-07-29T05:59:12;1.65;;;1.00;;
65924;SDS011;66010;52.084;5.412;2023-07-29T06:01:38;2.38;;;1.20;;
65924;SDS011;66010;52.084;5.412;2023-07-29T06:04:05;1.95;;;1.10;;
65924;SDS011;66010;52.084;5.412;2023-07-29T06:06:32;2.33;;;1.10;;
65924;SDS011;66010;52.084;5.412;2023-07-29T06:08:58;1.58;;;1.00;;
65924;SDS011;66010;52.084;5.412;2023-07-29T06:11:25;2.00;;;1.10;;
65924;SDS011;66010;52.084;5.412;2023-07-29T06:13:52;2.05;;;1.10;;
65924;SDS011;66010;52.084;5.412;2023-07-29T06:16:18;1.95;;;1.10;;
65924;SDS011;66010;52.084;5.412;2023-07-29T06:18:45;2.13;;;1.10;;
65924;SDS011;66010;52.084;5.412;2023-07-29T06:21:12;2.60;;;1.20;;
65924;SDS011;66010;52.084;5.412;2023-07-29T06:23:43;1.80;;;1.05;;
65924;SDS011;66010;52.084;5.412;2023-07-29T06:26:10;1.73;;;1.05;;
65924;SDS011;66010;52.084;5.412;2023-07-29T06:28:36;2.55;;;1.20;;
65924;SDS011;66010;52.084;5.412;2023-07-29T06:31:03;2.00;;;1.10;;
65924;SDS011;66010;52.084;5.412;2023-07-29T06:33:29;2.03;;;1.20;;
65924;SDS011;66010;52.084;5.412;2023-07-29T06:35:56;3.08;;;1.20;;
65924;SDS011;66010;52.084;5.412;2023-07-29T06:38:23;1.30;;;1.00;;
65924;SDS011;66010;52.084;5.412;2023-07-29T06:40:49;2.17;;;1.20;;
65924;SDS011;66010;52.084;5.412;2023-07-29T06:43:16;2.58;;;1.20;;
65924;SDS011;66010;52.084;5.412;2023-07-29T06:45:43;2.30;;;1.10;;
65924;SDS011;66010;52.084;5.412;2023-07-29T06:48:10;3.03;;;1.30;;
65924;SDS011;66010;52.084;5.412;2023-07-29T06:50:36;3.47;;;1.23;;
65924;SDS011;66010;52.084;5.412;2023-07-29T06:53:03;3.05;;;1.30;;
65924;SDS011;66010;52.084;5.412;2023-07-29T06:55:29;2.28;;;1.20;;
65924;SDS011;66010;52.084;5.412;2023-07-29T06:57:56;2.13;;;1.20;;
65924;SDS011;66010;52.084;5.412;2023-07-29T07:00:22;3.72;;;1.45;;
65924;SDS011;66010;52.084;5.412;2023-07-29T07:02:49;2.20;;;1.20;;
65924;SDS011;66010;52.084;5.412;2023-07-29T07:05:17;2.00;;;1.20;;
65924;SDS011;66010;52.084;5.412;2023-07-29T07:07:43;3.45;;;1.20;;
65924;SDS011;66010;52.084;5.412;2023-07-29T07:10:10;2.67;;;1.30;;
65924;SDS011;66010;52.084;5.412;2023-07-29T07:12:36;2.63;;;1.25;;
65924;SDS011;66010;52.084;5.412;2023-07-29T07:15:03;3.50;;;1.38;;
65924;SDS011;66010;52.084;5.412;2023-07-29T07:17:30;2.63;;;1.30;;
65924;SDS011;66010;52.084;5.412;2023-07-29T07:19:56;4.45;;;1.50;;
65924;SDS011;66010;52.084;5.412;2023-07-29T07:22:23;3.53;;;1.50;;
65924;SDS011;66010;52.084;5.412;2023-07-29T07:24:50;2.08;;;1.20;;
65924;SDS011;66010;52.084;5.412;2023-07-29T07:27:16;1.73;;;1.10;;
65924;SDS011;66010;52.084;5.412;2023-07-29T07:29:43;2.45;;;1.13;;
65924;SDS011;66010;52.084;5.412;2023-07-29T07:32:09;3.55;;;1.40;;
65924;SDS011;66010;52.084;5.412;2023-07-29T07:34:36;2.83;;;1.30;;
65924;SDS011;66010;52.084;5.412;2023-07-29T07:37:03;1.95;;;1.17;;
65924;SDS011;66010;52.084;5.412;2023-07-29T07:39:31;2.53;;;1.20;;
65924;SDS011;66010;52.084;5.412;2023-07-29T07:41:57;3.38;;;1.55;;
65924;SDS011;66010;52.084;5.412;2023-07-29T07:44:24;3.70;;;1.50;;
65924;SDS011;66010;52.084;5.412;2023-07-29T07:46:52;2.65;;;1.35;;
65924;SDS011;66010;52.084;5.412;2023-07-29T07:49:19;2.53;;;1.40;;
65924;SDS011;66010;52.084;5.412;2023-07-29T07:51:46;3.50;;;1.45;;
65924;SDS011;66010;52.084;5.412;2023-07-29T07:54:12;2.17;;;1.30;;
65924;SDS011;66010;52.084;5.412;2023-07-29T07:56:39;2.97;;;1.35;;
65924;SDS011;66010;52.084;5.412;2023-07-29T07:59:06;3.22;;;1.50;;
65924;SDS011;66010;52.084;5.412;2023-07-29T08:01:36;2.78;;;1.30;;
65924;SDS011;66010;52.084;5.412;2023-07-29T08:04:03;2.63;;;1.50;;
65924;SDS011;66010;52.084;5.412;2023-07-29T08:06:30;2.35;;;1.45;;
65924;SDS011;66010;52.084;5.412;2023-07-29T08:08:56;3.20;;;1.40;;
65924;SDS011;66010;52.084;5.412;2023-07-29T08:11:23;3.83;;;1.60;;
65924;SDS011;66010;52.084;5.412;2023-07-29T08:13:50;3.63;;;1.48;;
65924;SDS011;66010;52.084;5.412;2023-07-29T08:16:17;2.63;;;1.20;;
65924;SDS011;66010;52.084;5.412;2023-07-29T08:18:43;1.83;;;1.30;;
65924;SDS011;66010;52.084;5.412;2023-07-29T08:21:10;3.53;;;1.55;;
65924;SDS011;66010;52.084;5.412;2023-07-29T08:23:36;2.65;;;1.50;;
65924;SDS011;66010;52.084;5.412;2023-07-29T08:26:04;3.85;;;1.30;;
65924;SDS011;66010;52.084;5.412;2023-07-29T08:28:36;2.47;;;1.30;;
65924;SDS011;66010;52.084;5.412;2023-07-29T08:31:03;3.50;;;1.40;;
65924;SDS011;66010;52.084;5.412;2023-07-29T08:33:30;2.97;;;1.60;;
65924;SDS011;66010;52.084;5.412;2023-07-29T08:35:57;1.90;;;1.40;;
65924;SDS011;66010;52.084;5.412;2023-07-29T08:38:24;2.90;;;1.40;;
65924;SDS011;66010;52.084;5.412;2023-07-29T08:41:13;2.47;;;1.40;;
65924;SDS011;66010;52.084;5.412;2023-07-29T08:43:43;3.53;;;1.30;;
65924;SDS011;66010;52.084;5.412;2023-07-29T08:46:10;3.33;;;1.63;;
65924;SDS011;66010;52.084;5.412;2023-07-29T08:48:40;3.42;;;1.60;;
65924;SDS011;66010;52.084;5.412;2023-07-29T08:51:08;2.35;;;1.23;;
65924;SDS011;66010;52.084;5.412;2023-07-29T08:53:35;3.03;;;1.60;;
65924;SDS011;66010;52.084;5.412;2023-07-29T08:56:02;3.20;;;1.60;;
65924;SDS011;66010;52.084;5.412;2023-07-29T08:58:29;3.90;;;1.50;;
65924;SDS011;66010;52.084;5.412;2023-07-29T09:00:55;3.72;;;1.73;;
65924;SDS011;66010;52.084;5.412;2023-07-29T09:03:22;3.30;;;1.50;;
65924;SDS011;66010;52.084;5.412;2023-07-29T09:05:49;2.88;;;1.63;;
65924;SDS011;66010;52.084;5.412;2023-07-29T09:08:16;3.38;;;1.52;;
65924;SDS011;66010;52.084;5.412;2023-07-29T09:10:43;3.92;;;1.60;;
65924;SDS011;66010;52.084;5.412;2023-07-29T09:13:10;3.05;;;1.40;;
65924;SDS011;66010;52.084;5.412;2023-07-29T09:15:36;2.15;;;1.20;;
65924;SDS011;66010;52.084;5.412;2023-07-29T09:18:10;2.38;;;1.50;;
65924;SDS011;66010;52.084;5.412;2023-07-29T09:20:37;3.33;;;1.67;;
65924;SDS011;66010;52.084;5.412;2023-07-29T09:23:06;2.65;;;1.40;;
65924;SDS011;66010;52.084;5.412;2023-07-29T09:25:33;2.25;;;1.33;;
65924;SDS011;66010;52.084;5.412;2023-07-29T09:28:00;2.95;;;1.50;;
65924;SDS011;66010;52.084;5.412;2023-07-29T09:30:27;2.92;;;1.50;;
65924;SDS011;66010;52.084;5.412;2023-07-29T09:32:54;2.67;;;1.50;;
65924;SDS011;66010;52.084;5.412;2023-07-29T09:35:21;3.10;;;1.50;;
65924;SDS011;66010;52.084;5.412;2023-07-29T09:37:47;2.45;;;1.40;;
65924;SDS011;66010;52.084;5.412;2023-07-29T09:40:14;2.42;;;1.58;;
65924;SDS011;66010;52.084;5.412;2023-07-29T09:42:52;1.98;;;1.40;;
65924;SDS011;66010;52.084;5.412;2023-07-29T09:45:22;2.80;;;1.50;;
65924;SDS011;66010;52.084;5.412;2023-07-29T09:47:49;3.35;;;1.60;;
65924;SDS011;66010;52.084;5.412;2023-07-29T09:50:16;2.70;;;1.50;;
65924;SDS011;66010;52.084;5.412;2023-07-29T09:52:43;3.38;;;1.70;;
65924;SDS011;66010;52.084;5.412;2023-07-29T09:55:12;2.67;;;1.60;;
65924;SDS011;66010;52.084;5.412;2023-07-29T09:57:39;2.50;;;1.70;;
65924;SDS011;66010;52.084;5.412;2023-07-29T10:00:06;1.92;;;1.40;;
65924;SDS011;66010;52.084;5.412;2023-07-29T10:02:41;3.65;;;1.60;;
65924;SDS011;66010;52.084;5.412;2023-07-29T10:05:08;3.42;;;1.70;;
65924;SDS011;66010;52.084;5.412;2023-07-29T10:07:38;2.95;;;1.50;;
65924;SDS011;66010;52.084;5.412;2023-07-29T10:10:06;2.70;;;1.33;;
65924;SDS011;66010;52.084;5.412;2023-07-29T10:12:34;2.30;;;1.40;;
65924;SDS011;66010;52.084;5.412;2023-07-29T10:15:02;2.85;;;1.55;;
65924;SDS011;66010;52.084;5.412;2023-07-29T10:17:30;2.55;;;1.60;;
65924;SDS011;66010;52.084;5.412;2023-07-29T10:19:57;2.58;;;1.63;;
65924;SDS011;66010;52.084;5.412;2023-07-29T10:22:26;2.22;;;1.50;;
65924;SDS011;66010;52.084;5.412;2023-07-29T10:24:54;2.17;;;1.45;;
65924;SDS011;66010;52.084;5.412;2023-07-29T10:27:23;2.42;;;1.50;;
65924;SDS011;66010;52.084;5.412;2023-07-29T10:29:50;2.83;;;1.60;;
65924;SDS011;66010;52.084;5.412;2023-07-29T10:32:18;3.15;;;1.60;;
65924;SDS011;66010;52.084;5.412;2023-07-29T10:34:45;2.50;;;1.60;;
65924;SDS011;66010;52.084;5.412;2023-07-29T10:37:12;2.75;;;1.50;;
65924;SDS011;66010;52.084;5.412;2023-07-29T10:39:39;2.40;;;1.60;;
65924;SDS011;66010;52.084;5.412;2023-07-29T10:42:06;3.92;;;1.70;;
65924;SDS011;66010;52.084;5.412;2023-07-29T10:49:45;2.53;;;1.40;;
65924;SDS011;66010;52.084;5.412;2023-07-29T10:52:16;2.45;;;1.40;;
65924;SDS011;66010;52.084;5.412;2023-07-29T10:54:46;3.08;;;1.50;;
65924;SDS011;66010;52.084;5.412;2023-07-29T10:57:14;2.47;;;1.40;;
65924;SDS011;66010;52.084;5.412;2023-07-29T10:59:53;1.92;;;1.30;;
65924;SDS011;66010;52.084;5.412;2023-07-29T11:02:22;3.15;;;1.70;;
65924;SDS011;66010;52.084;5.412;2023-07-29T11:04:54;2.85;;;1.52;;
65924;SDS011;66010;52.084;5.412;2023-07-29T11:07:24;2.55;;;1.30;;
65924;SDS011;66010;52.084;5.412;2023-07-29T11:09:54;3.08;;;1.50;;
65924;SDS011;66010;52.084;5.412;2023-07-29T11:15:19;2.22;;;1.50;;
65924;SDS011;66010;52.084;5.412;2023-07-29T11:20:16;2.70;;;1.40;;
65924;SDS011;66010;52.084;5.412;2023-07-29T11:22:43;2.50;;;1.30;;
65924;SDS011;66010;52.084;5.412;2023-07-29T11:25:11;2.90;;;1.60;;
65924;SDS011;66010;52.084;5.412;2023-07-29T11:27:38;2.75;;;1.40;;
65924;SDS011;66010;52.084;5.412;2023-07-29T11:30:05;2.40;;;1.30;;
65924;SDS011;66010;52.084;5.412;2023-07-29T11:32:32;2.63;;;1.50;;
65924;SDS011;66010;52.084;5.412;2023-07-29T11:35:03;2.03;;;1.40;;
65924;SDS011;66010;52.084;5.412;2023-07-29T11:37:30;2.78;;;1.50;;
65924;SDS011;66010;52.084;5.412;2023-07-29T11:39:56;2.50;;;1.50;;
65924;SDS011;66010;52.084;5.412;2023-07-29T11:42:23;3.72;;;1.60;;
65924;SDS011;66010;52.084;5.412;2023-07-29T11:44:50;3.35;;;1.70;;
65924;SDS011;66010;52.084;5.412;2023-07-29T11:47:16;2.25;;;1.30;;
65924;SDS011;66010;52.084;5.412;2023-07-29T11:49:43;2.35;;;1.50;;
65924;SDS011;66010;52.084;5.412;2023-07-29T11:52:10;3.13;;;1.58;;
65924;SDS011;66010;52.084;5.412;2023-07-29T11:54:37;2.83;;;1.50;;
65924;SDS011;66010;52.084;5.412;2023-07-29T11:57:06;3.50;;;1.73;;
65924;SDS011;66010;52.084;5.412;2023-07-29T11:59:33;2.80;;;1.60;;
65924;SDS011;66010;52.084;5.412;2023-07-29T12:02:21;2.88;;;1.50;;
65924;SDS011;66010;52.084;5.412;2023-07-29T12:04:46;2.60;;;1.45;;
65924;SDS011;66010;52.084;5.412;2023-07-29T12:09:41;2.17;;;1.42;;
65924;SDS011;66010;52.084;5.412;2023-07-29T12:12:08;2.90;;;1.42;;
65924;SDS011;66010;52.084;5.412;2023-07-29T12:14:35;2.33;;;1.50;;
65924;SDS011;66010;52.084;5.412;2023-07-29T12:17:02;2.22;;;1.48;;
65924;SDS011;66010;52.084;5.412;2023-07-29T12:21:59;1.83;;;1.30;;
65924;SDS011;66010;52.084;5.412;2023-07-29T12:24:25;2.15;;;1.30;;
65924;SDS011;66010;52.084;5.412;2023-07-29T12:26:52;2.67;;;1.40;;
65924;SDS011;66010;52.084;5.412;2023-07-29T12:29:19;2.20;;;1.20;;
65924;SDS011;66010;52.084;5.412;2023-07-29T12:31:49;2.35;;;1.30;;
65924;SDS011;66010;52.084;5.412;2023-07-29T12:34:19;1.50;;;1.13;;
65924;SDS011;66010;52.084;5.412;2023-07-29T12:36:47;2.50;;;1.30;;
65924;SDS011;66010;52.084;5.412;2023-07-29T12:39:30;2.67;;;1.20;;
65924;SDS011;66010;52.084;5.412;2023-07-29T12:41:58;1.92;;;1.30;;
65924;SDS011;66010;52.084;5.412;2023-07-29T12:44:34;1.75;;;1.30;;
65924;SDS011;66010;52.084;5.412;2023-07-29T12:47:01;2.20;;;1.30;;
65924;SDS011;66010;52.084;5.412;2023-07-29T12:49:29;1.85;;;1.30;;
65924;SDS011;66010;52.084;5.412;2023-07-29T12:51:56;1.55;;;1.10;;
65924;SDS011;66010;52.084;5.412;2023-07-29T12:54:23;3.03;;;1.23;;
65924;SDS011;66010;52.084;5.412;2023-07-29T12:56:49;1.33;;;1.10;;
65924;SDS011;66010;52.084;5.412;2023-07-29T12:59:16;2.63;;;1.20;;
65924;SDS011;66010;52.084;5.412;2023-07-29T13:01:42;2.60;;;1.27;;
65924;SDS011;66010;52.084;5.412;2023-07-29T13:04:09;2.53;;;1.20;;
65924;SDS011;66010;52.084;5.412;2023-07-29T13:06:36;1.95;;;1.20;;
65924;SDS011;66010;52.084;5.412;2023-07-29T13:09:03;2.05;;;1.20;;
65924;SDS011;66010;52.084;5.412;2023-07-29T13:11:29;3.72;;;1.20;;
65924;SDS011;66010;52.084;5.412;2023-07-29T13:13:58;1.70;;;1.20;;
65924;SDS011;66010;52.084;5.412;2023-07-29T13:16:27;2.65;;;1.30;;
65924;SDS011;66010;52.084;5.412;2023-07-29T13:18:54;1.50;;;1.10;;
65924;SDS011;66010;52.084;5.412;2023-07-29T13:21:21;1.90;;;1.27;;
65924;SDS011;66010;52.084;5.412;2023-07-29T13:23:47;1.67;;;1.20;;
65924;SDS011;66010;52.084;5.412;2023-07-29T13:26:14;1.73;;;1.10;;
65924;SDS011;66010;52.084;5.412;2023-07-29T13:28:40;2.25;;;1.20;;
65924;SDS011;66010;52.084;5.412;2023-07-29T13:31:07;1.65;;;1.13;;
65924;SDS011;66010;52.084;5.412;2023-07-29T13:33:33;2.75;;;1.30;;
65924;SDS011;66010;52.084;5.412;2023-07-29T13:36:00;2.28;;;1.10;;
65924;SDS011;66010;52.084;5.412;2023-07-29T13:38:29;1.33;;;1.05;;
65924;SDS011;66010;52.084;5.412;2023-07-29T13:40:56;1.98;;;1.23;;
65924;SDS011;66010;52.084;5.412;2023-07-29T13:43:22;1.83;;;1.20;;
65924;SDS011;66010;52.084;5.412;2023-07-29T13:45:49;1.45;;;1.10;;
65924;SDS011;66010;52.084;5.412;2023-07-29T13:48:17;2.20;;;1.10;;
65924;SDS011;66010;52.084;5.412;2023-07-29T13:50:44;1.88;;;1.20;;
65924;SDS011;66010;52.084;5.412;2023-07-29T13:53:10;2.00;;;1.20;;
65924;SDS011;66010;52.084;5.412;2023-07-29T13:55:37;2.22;;;1.10;;
65924;SDS011;66010;52.084;5.412;2023-07-29T13:58:04;2.40;;;1.10;;
65924;SDS011;66010;52.084;5.412;2023-07-29T14:02:58;2.03;;;1.02;;
65924;SDS011;66010;52.084;5.412;2023-07-29T14:05:24;1.90;;;1.10;;
65924;SDS011;66010;52.084;5.412;2023-07-29T14:07:51;1.95;;;1.15;;
65924;SDS011;66010;52.084;5.412;2023-07-29T14:10:18;1.98;;;1.15;;
65924;SDS011;66010;52.084;5.412;2023-07-29T14:12:44;2.28;;;1.20;;
65924;SDS011;66010;52.084;5.412;2023-07-29T14:15:11;1.95;;;1.20;;
65924;SDS011;66010;52.084;5.412;2023-07-29T14:17:37;1.23;;;1.02;;
65924;SDS011;66010;52.084;5.412;2023-07-29T14:20:04;2.75;;;1.33;;
65924;SDS011;66010;52.084;5.412;2023-07-29T14:22:31;1.75;;;1.02;;
65924;SDS011;66010;52.084;5.412;2023-07-29T14:24:58;2.42;;;1.15;;
65924;SDS011;66010;52.084;5.412;2023-07-29T14:27:26;2.13;;;1.20;;
65924;SDS011;66010;52.084;5.412;2023-07-29T14:29:53;1.80;;;1.15;;
65924;SDS011;66010;52.084;5.412;2023-07-29T14:32:19;1.80;;;1.50;;
65924;SDS011;66010;52.084;5.412;2023-07-29T14:34:48;1.73;;;1.13;;
65924;SDS011;66010;52.084;5.412;2023-07-29T14:37:15;1.50;;;1.20;;
65924;SDS011;66010;52.084;5.412;2023-07-29T14:39:42;1.80;;;1.30;;
65924;SDS011;66010;52.084;5.412;2023-07-29T14:42:08;1.73;;;1.00;;
65924;SDS011;66010;52.084;5.412;2023-07-29T14:44:35;2.30;;;1.20;;
65924;SDS011;66010;52.084;5.412;2023-07-29T14:47:02;1.92;;;1.20;;
65924;SDS011;66010;52.084;5.412;2023-07-29T14:49:28;1.42;;;1.02;;
65924;SDS011;66010;52.084;5.412;2023-07-29T14:51:55;1.67;;;1.20;;
65924;SDS011;66010;52.084;5.412;2023-07-29T14:54:22;2.00;;;1.30;;
65924;SDS011;66010;52.084;5.412;2023-07-29T14:56:48;1.85;;;1.27;;
65924;SDS011;66010;52.084;5.412;2023-07-29T14:59:15;1.48;;;1.00;;
65924;SDS011;66010;52.084;5.412;2023-07-29T15:01:41;2.08;;;1.15;;
65924;SDS011;66010;52.084;5.412;2023-07-29T15:04:08;2.45;;;1.30;;
65924;SDS011;66010;52.084;5.412;2023-07-29T15:06:34;2.10;;;1.20;;
65924;SDS011;66010;52.084;5.412;2023-07-29T15:11:29;2.38;;;1.25;;
65924;SDS011;66010;52.084;5.412;2023-07-29T15:13:55;2.90;;;1.30;;
65924;SDS011;66010;52.084;5.412;2023-07-29T15:16:22;1.75;;;1.20;;
65924;SDS011;66010;52.084;5.412;2023-07-29T15:18:49;1.50;;;1.20;;
65924;SDS011;66010;52.084;5.412;2023-07-29T15:21:16;1.90;;;1.10;;
65924;SDS011;66010;52.084;5.412;2023-07-29T15:23:43;1.85;;;1.20;;
65924;SDS011;66010;52.084;5.412;2023-07-29T15:26:10;2.08;;;1.17;;